This is the latest recevied weather packets stored in our database for station/object SP6FIG-13. If no packets are shown the sender has not sent any weather packets the latest 10 day(s).
| Time | Temp. | Humidity | Pressure | Rain* | Wind** | Luminosity | Snow |
|---|---|---|---|---|---|---|---|
| 1777785863 | 22.78° C | 36% | 1018.2 hPa | - | - | - | - |
| 1777785563 | 22.22° C | 36% | 1018 hPa | - | - | - | - |
| 1777785263 | 22.22° C | 35% | 1018.2 hPa | - | - | - | - |
| 1777784963 | 22.22° C | 36% | 1018.4 hPa | - | - | - | - |
| 1777784663 | 22.22° C | 36% | 1018.7 hPa | - | - | - | - |
| 1777784363 | 22.78° C | 36% | 1018.1 hPa | - | - | - | - |
| 1777784063 | 22.78° C | 36% | 1018.2 hPa | - | - | - | - |
| 1777783763 | 22.78° C | 36% | 1018 hPa | - | - | - | - |
| 1777783463 | 22.78° C | 36% | 1017.9 hPa | - | - | - | - |
| 1777783163 | 22.78° C | 36% | 1017.1 hPa | - | - | - | - |
| 1777782863 | 21.67° C | 36% | 1018 hPa | - | - | - | - |
| 1777782563 | 21.67° C | 36% | 1018.2 hPa | - | - | - | - |
| 1777782263 | 21.67° C | 36% | 1018.5 hPa | - | - | - | - |
| 1777781963 | 22.22° C | 36% | 1017.7 hPa | - | - | - | - |
| 1777781663 | 21.67° C | 36% | 1018.3 hPa | - | - | - | - |
| 1777781363 | 21.67° C | 36% | 1018 hPa | - | - | - | - |
| 1777781063 | 21.67° C | 36% | 1018.2 hPa | - | - | - | - |
| 1777780763 | 21.67° C | 36% | 1018.1 hPa | - | - | - | - |
| 1777780463 | 21.67° C | 36% | 1018.2 hPa | - | - | - | - |
| 1777780163 | 21.67° C | 36% | 1018.3 hPa | - | - | - | - |
| 1777779863 | 21.67° C | 36% | 1018.3 hPa | - | - | - | - |
| 1777779563 | 21.67° C | 36% | 1018.3 hPa | - | - | - | - |
| 1777779263 | 21.67° C | 36% | 1018.2 hPa | - | - | - | - |
| 1777778963 | 21.67° C | 36% | 1018.1 hPa | - | - | - | - |
| 1777778663 | 21.67° C | 36% | 1018.3 hPa | - | - | - | - |
* Rain since midnight (hover to see other rain measurements)
** Current wind speed in m/s (hover to see current wind gust speed)